createdAt,value
2019-02-19T00:01:17.028Z,100297.43
2019-02-19T00:03:47.271Z,100287.70
2019-02-19T00:06:17.936Z,100287.66
2019-02-19T00:08:48.429Z,100283.83
2019-02-19T00:11:18.381Z,100279.95
2019-02-19T00:13:48.755Z,100285.51
2019-02-19T00:16:19.018Z,100277.42
2019-02-19T00:18:49.157Z,100265.91
2019-02-19T00:21:19.583Z,100279.17
2019-02-19T00:23:50.130Z,100269.81
2019-02-19T00:26:20.069Z,100272.40
2019-02-19T00:28:50.104Z,100261.75
2019-02-19T00:31:20.149Z,100262.22
2019-02-19T00:33:50.316Z,100248.58
2019-02-19T00:36:21.359Z,100251.60
2019-02-19T00:38:51.699Z,100253.69
2019-02-19T00:41:21.699Z,100263.47
2019-02-19T00:43:51.859Z,100261.72
2019-02-19T00:46:22.111Z,100263.38
2019-02-19T00:48:52.271Z,100262.89
2019-02-19T00:51:22.814Z,100262.83
2019-02-19T00:53:53.317Z,100260.19
2019-02-19T00:56:23.586Z,100258.41
2019-02-19T00:58:54.029Z,100260.50
2019-02-19T01:01:24.940Z,100259.22
2019-02-19T01:03:55.352Z,100265.61
2019-02-19T01:06:25.670Z,100264.74
2019-02-19T01:08:56.404Z,100264.71
2019-02-19T01:11:29.040Z,100269.14
2019-02-19T01:14:01.932Z,100265.73
2019-02-19T01:16:32.800Z,100258.00
2019-02-19T01:19:03.337Z,100257.16
2019-02-19T01:21:34.116Z,100258.41
2019-02-19T01:24:04.406Z,100255.41
2019-02-19T01:26:34.522Z,100257.16
2019-02-19T01:29:04.832Z,100257.06
2019-02-19T01:31:34.924Z,100254.57
2019-02-19T01:34:05.153Z,100252.39
2019-02-19T01:36:35.440Z,100248.98
2019-02-19T01:39:06.262Z,100250.20
2019-02-19T01:41:36.675Z,100249.30
2019-02-19T01:44:07.340Z,100244.13
2019-02-19T01:46:37.954Z,100238.55
2019-02-19T01:49:08.868Z,100238.14
2019-02-19T01:51:39.159Z,100235.58
2019-02-19T01:54:09.413Z,100233.87
2019-02-19T01:56:39.675Z,100227.85
2019-02-19T01:59:10.096Z,100218.43
2019-02-19T02:01:40.676Z,100221.39
2019-02-19T02:04:10.926Z,100214.56
2019-02-19T02:06:42.131Z,100203.06
2019-02-19T02:09:12.457Z,100207.33
2019-02-19T02:11:42.849Z,100201.81
2019-02-19T02:14:13.564Z,100196.26
2019-02-19T02:16:43.899Z,100195.85
2019-02-19T02:19:14.600Z,100193.77
2019-02-19T02:21:45.047Z,100195.94
2019-02-19T02:24:15.202Z,100181.90
2019-02-19T02:26:46.374Z,100169.11
2019-02-19T02:29:17.413Z,100170.02
2019-02-19T02:31:47.859Z,100167.89
2019-02-19T02:34:18.519Z,100160.22
2019-02-19T02:36:49.188Z,100159.37
2019-02-19T02:39:20.031Z,100157.72
2019-02-19T02:41:50.511Z,100156.87
2019-02-19T02:44:20.711Z,100156.87
2019-02-19T02:46:51.129Z,100147.94
2019-02-19T02:49:21.949Z,100146.74
2019-02-19T02:51:52.322Z,100149.41
2019-02-19T02:54:22.367Z,100145.19
2019-02-19T02:56:52.709Z,100159.75
2019-02-19T02:59:22.811Z,100161.48
2019-02-19T03:01:53.632Z,100157.27
2019-02-19T03:04:24.505Z,100153.09
2019-02-19T03:07:17.011Z,100146.34
2019-02-19T03:09:47.323Z,100148.65
2019-02-19T03:12:17.897Z,100138.67
2019-02-19T03:14:48.382Z,100129.16
2019-02-19T03:17:18.836Z,100130.70
2019-02-19T03:19:50.066Z,100124.93
2019-02-19T03:22:20.363Z,100121.23
2019-02-19T03:25:00.368Z,100119.67
2019-02-19T03:27:33.046Z,100115.49
2019-02-19T03:30:03.710Z,100105.33
2019-02-19T03:32:33.924Z,100098.13
2019-02-19T03:35:11.260Z,100106.28
2019-02-19T03:37:41.687Z,100102.07
2019-02-19T03:40:11.807Z,100103.37
2019-02-19T03:42:42.160Z,100097.78
2019-02-19T03:45:12.397Z,100102.05
2019-02-19T03:47:42.730Z,100089.22
2019-02-19T03:50:12.990Z,100077.66
2019-02-19T03:52:43.463Z,100069.98
2019-02-19T03:55:13.580Z,100068.27
2019-02-19T03:57:43.969Z,100057.19
2019-02-19T04:00:14.293Z,100054.20
2019-02-19T04:02:45.070Z,100044.35
2019-02-19T04:05:15.647Z,100046.06
2019-02-19T04:07:45.976Z,100038.36
2019-02-19T04:10:16.373Z,100044.80
2019-02-19T04:12:46.813Z,100043.92
2019-02-19T04:15:17.213Z,100032.36
2019-02-19T04:17:47.993Z,100029.37
2019-02-19T04:20:18.198Z,100028.92
2019-02-19T04:22:48.722Z,100025.08
2019-02-19T04:25:19.151Z,100025.09
2019-02-19T04:27:49.674Z,100021.62
2019-02-19T04:30:20.125Z,100016.44
2019-02-19T04:32:50.598Z,100015.09
2019-02-19T04:35:21.011Z,100010.77
2019-02-19T04:37:51.759Z,100018.88
2019-02-19T04:40:22.194Z,100024.83
2019-02-19T04:42:52.724Z,100011.48
2019-02-19T04:45:22.962Z,100008.89
2019-02-19T04:47:53.249Z,100013.56
2019-02-19T04:50:23.640Z,100002.83
2019-02-19T04:52:54.089Z,100000.25
2019-02-19T04:55:24.658Z,99991.24
2019-02-19T04:57:55.520Z,99989.07
2019-02-19T05:00:34.073Z,99993.78
2019-02-19T05:03:05.324Z,99993.75
2019-02-19T05:05:35.474Z,99992.94
2019-02-19T05:08:05.909Z,99983.97
2019-02-19T05:10:36.245Z,99989.91
2019-02-19T05:13:06.784Z,99980.13
2019-02-19T05:15:37.604Z,99981.89
2019-02-19T05:18:08.943Z,99975.05
2019-02-19T05:20:40.149Z,99974.69
2019-02-19T05:23:11.313Z,99964.04
2019-02-19T05:25:44.180Z,99967.52
2019-02-19T05:28:15.104Z,99970.98
2019-02-19T05:30:45.388Z,99963.31
2019-02-19T05:33:15.802Z,99967.61
2019-02-19T05:35:46.108Z,99968.02
2019-02-19T05:38:16.327Z,99960.30
2019-02-19T05:40:46.733Z,99946.19
2019-02-19T05:43:17.260Z,99956.02
2019-02-19T05:45:47.658Z,99956.05
2019-02-19T05:48:18.358Z,99950.91
2019-02-19T05:50:49.190Z,99948.33
2019-02-19T05:53:19.916Z,99947.91
2019-02-19T05:55:50.153Z,99939.34
2019-02-19T05:58:21.005Z,99942.34
2019-02-19T06:00:51.420Z,99937.22
2019-02-19T06:03:21.943Z,99926.53
2019-02-19T06:05:52.639Z,99927.40
2019-02-19T06:08:23.371Z,99927.85
2019-02-19T06:10:54.215Z,99916.75
2019-02-19T06:13:24.692Z,99914.64
2019-02-19T06:15:55.183Z,99910.83
2019-02-19T06:18:26.161Z,99900.57
2019-02-19T06:20:56.617Z,99901.45
2019-02-19T06:23:27.278Z,99895.89
2019-02-19T06:25:57.386Z,99888.60
2019-02-19T06:28:27.877Z,99887.33
2019-02-19T06:31:00.569Z,99875.77
2019-02-19T06:33:35.071Z,99880.06
2019-02-19T06:36:06.108Z,99866.80
2019-02-19T06:38:36.763Z,99865.91
2019-02-19T06:41:07.356Z,99858.22
2019-02-19T06:43:38.131Z,99853.47
2019-02-19T06:46:08.533Z,99841.47
2019-02-19T06:48:39.118Z,99839.74
2019-02-19T06:51:10.002Z,99841.03
2019-02-19T06:53:40.631Z,99832.00
2019-02-19T06:56:11.278Z,99822.55
2019-02-19T06:58:41.871Z,99820.77
2019-02-19T07:01:13.211Z,99810.02
2019-02-19T07:04:03.155Z,99804.41
2019-02-19T07:06:34.263Z,99804.81
2019-02-19T07:09:06.430Z,99801.30
2019-02-19T07:11:37.681Z,99798.25
2019-02-19T07:14:08.365Z,99789.59
2019-02-19T07:16:39.559Z,99782.66
2019-02-19T07:19:10.823Z,99781.70
2019-02-19T07:21:41.993Z,99782.07
2019-02-19T07:24:12.702Z,99775.54
2019-02-19T07:26:43.513Z,99772.87
2019-02-19T07:29:15.118Z,99763.77
2019-02-19T07:31:45.984Z,99770.55
2019-02-19T07:34:17.035Z,99763.55
2019-02-19T07:36:47.906Z,99756.66
2019-02-19T07:39:18.336Z,99758.67
2019-02-19T07:41:49.031Z,99754.73
2019-02-19T07:44:19.725Z,99750.37
2019-02-19T07:46:51.035Z,99746.49
2019-02-19T07:49:23.130Z,99746.39
2019-02-19T07:51:53.897Z,99738.11
2019-02-19T07:54:25.267Z,99724.27
2019-02-19T07:56:56.334Z,99725.88
2019-02-19T07:59:26.802Z,99723.75
2019-02-19T08:01:59.128Z,99721.52
2019-02-19T08:04:32.151Z,99712.42
2019-02-19T08:07:02.682Z,99705.50
2019-02-19T08:09:33.073Z,99701.52
2019-02-19T08:12:03.907Z,99685.11
2019-02-19T08:14:34.683Z,99686.24
2019-02-19T08:17:05.933Z,99690.45
2019-02-19T08:19:36.582Z,99679.63
2019-02-19T08:22:07.413Z,99679.48
2019-02-19T08:24:37.871Z,99678.55
2019-02-19T08:27:08.775Z,99666.86
2019-02-19T08:29:40.108Z,99662.86
2019-02-19T08:32:10.881Z,99658.06
2019-02-19T08:34:40.918Z,99665.00
2019-02-19T08:37:11.744Z,99649.45
2019-02-19T08:39:42.308Z,99651.53
2019-02-19T08:42:13.321Z,99644.52
2019-02-19T08:44:43.974Z,99640.12
2019-02-19T08:47:15.011Z,99634.34
2019-02-19T08:49:45.581Z,99633.34
2019-02-19T08:52:16.358Z,99637.52
2019-02-19T08:54:46.897Z,99634.09
2019-02-19T08:57:17.668Z,99633.89
2019-02-19T08:59:48.783Z,99622.55
2019-02-19T09:02:19.590Z,99621.98
2019-02-19T09:04:50.821Z,99620.16
2019-02-19T09:07:21.835Z,99621.39
2019-02-19T09:09:52.734Z,99613.11
2019-02-19T09:12:23.184Z,99609.06
2019-02-19T09:14:53.775Z,99608.61
2019-02-19T09:17:24.669Z,99604.09
2019-02-19T09:19:55.061Z,99597.05
2019-02-19T09:22:25.764Z,99592.23
2019-02-19T09:24:56.429Z,99587.83
2019-02-19T09:27:27.091Z,99584.36
2019-02-19T09:29:57.959Z,99579.92
2019-02-19T09:32:29.047Z,99565.49
2019-02-19T09:34:59.384Z,99571.78
2019-02-19T09:37:29.925Z,99572.23
2019-02-19T09:40:00.320Z,99561.05
2019-02-19T09:42:31.371Z,99565.27
2019-02-19T09:45:01.729Z,99554.84
2019-02-19T09:47:32.312Z,99565.75
2019-02-19T09:50:02.751Z,99542.27
2019-02-19T09:52:33.203Z,99553.80
2019-02-19T09:55:04.183Z,99551.03
2019-02-19T09:57:35.361Z,99548.84
2019-02-19T10:00:07.679Z,99541.33
2019-02-19T10:02:38.933Z,99553.14
2019-02-19T10:05:10.435Z,99538.78
2019-02-19T10:07:42.072Z,99529.93
2019-02-19T10:10:14.781Z,99518.27
2019-02-19T10:12:46.607Z,99525.10
2019-02-19T10:15:16.926Z,99515.56
2019-02-19T10:17:47.799Z,99511.13
2019-02-19T10:20:19.383Z,99511.48
2019-02-19T10:22:51.228Z,99505.08
2019-02-19T10:25:22.164Z,99498.59
2019-02-19T10:27:53.572Z,99494.09
2019-02-19T10:30:24.587Z,99491.27
2019-02-19T10:32:55.508Z,99495.40
2019-02-19T10:35:26.234Z,99495.40
2019-02-19T10:37:56.733Z,99486.56
2019-02-19T10:40:27.380Z,99488.17
2019-02-19T10:42:58.308Z,99485.11
2019-02-19T10:45:29.274Z,99482.91
2019-02-19T10:48:00.936Z,99476.78
2019-02-19T10:50:31.284Z,99464.27
2019-02-19T10:53:01.826Z,99456.45
2019-02-19T10:55:32.395Z,99447.30
2019-02-19T10:58:03.150Z,99451.70
2019-02-19T11:00:33.728Z,99451.19
2019-02-19T11:03:04.418Z,99452.23
2019-02-19T11:05:35.721Z,99438.05
2019-02-19T11:08:06.343Z,99429.27
2019-02-19T11:10:37.298Z,99432.18
2019-02-19T11:13:07.685Z,99437.16
2019-02-19T11:15:38.085Z,99428.08
2019-02-19T11:18:08.769Z,99428.44
2019-02-19T11:20:39.170Z,99428.26
2019-02-19T11:23:10.180Z,99419.95
2019-02-19T11:25:40.696Z,99424.20
2019-02-19T11:28:11.579Z,99414.20
2019-02-19T11:30:42.561Z,99414.03
2019-02-19T11:33:13.041Z,99403.17
2019-02-19T11:35:43.641Z,99408.23
2019-02-19T11:38:14.324Z,99406.37
2019-02-19T11:40:44.939Z,99404.11
2019-02-19T11:43:15.967Z,99394.98
2019-02-19T11:45:46.623Z,99394.52
2019-02-19T11:48:19.098Z,99391.48
2019-02-19T11:54:28.564Z,99389.36
2019-02-19T11:56:59.350Z,99386.94
2019-02-19T11:59:30.193Z,99389.97
2019-02-19T12:02:02.813Z,99390.87
2019-02-19T12:04:33.887Z,99390.87
2019-02-19T12:07:04.458Z,99386.98
2019-02-19T12:09:35.227Z,99393.22
2019-02-19T12:12:06.343Z,99387.59
2019-02-19T12:14:36.911Z,99384.42
2019-02-19T12:17:09.200Z,99388.80
2019-02-19T12:19:39.885Z,99378.33
2019-02-19T12:22:10.555Z,99380.48
2019-02-19T12:24:40.979Z,99378.58
2019-02-19T12:27:11.397Z,99379.78
2019-02-19T12:29:41.947Z,99372.42
2019-02-19T12:32:12.537Z,99371.89
2019-02-19T12:34:43.348Z,99373.06
2019-02-19T12:37:14.732Z,99365.56
2019-02-19T12:39:45.655Z,99365.12
2019-02-19T12:42:16.288Z,99365.03
2019-02-19T12:44:47.134Z,99361.96
2019-02-19T12:47:18.698Z,99356.95
2019-02-19T12:49:49.489Z,99359.46
2019-02-19T12:52:19.776Z,99356.30
2019-02-19T12:54:50.739Z,99341.46
2019-02-19T12:57:21.708Z,99362.45
2019-02-19T12:59:56.520Z,99358.35
2019-02-19T13:02:24.882Z,99348.69
2019-02-19T13:04:55.834Z,99348.64
2019-02-19T13:07:26.572Z,99346.95
2019-02-19T13:09:57.231Z,99359.00
2019-02-19T13:12:27.927Z,99346.91
2019-02-19T13:14:58.373Z,99338.91
2019-02-19T13:17:29.180Z,99349.86
2019-02-19T13:19:59.543Z,99337.45
2019-02-19T13:22:29.982Z,99335.84
2019-02-19T13:25:00.760Z,99338.72
2019-02-19T13:27:31.382Z,99333.06
2019-02-19T13:30:02.330Z,99334.60
2019-02-19T13:32:34.210Z,99343.55
2019-02-19T13:35:05.617Z,99333.94
2019-02-19T13:37:44.258Z,99335.06
2019-02-19T13:40:16.035Z,99325.09
2019-02-19T13:42:49.127Z,99322.66
2019-02-19T13:45:23.147Z,99325.09
2019-02-19T13:47:54.928Z,99316.72
2019-02-19T13:50:26.304Z,99316.44
2019-02-19T13:53:04.353Z,99320.33
2019-02-19T13:55:38.307Z,99318.91
2019-02-19T13:58:10.597Z,99311.25
2019-02-19T14:00:42.905Z,99323.55
2019-02-19T14:03:15.306Z,99317.87
2019-02-19T14:05:56.609Z,99316.55
2019-02-19T14:08:31.454Z,99313.02
2019-02-19T14:11:02.208Z,99322.89
2019-02-19T14:13:36.150Z,99315.32
2019-02-19T14:16:14.052Z,99314.81
2019-02-19T14:18:55.318Z,99314.30
2019-02-19T14:21:40.127Z,99314.16
2019-02-19T14:24:27.708Z,99301.31
2019-02-19T14:27:09.327Z,99294.66
2019-02-19T14:29:57.663Z,99298.32
2019-02-19T14:32:45.787Z,99290.76
2019-02-19T14:35:34.363Z,99294.15
2019-02-19T14:38:22.465Z,99294.05
2019-02-19T14:41:18.584Z,99292.05
2019-02-19T14:44:07.319Z,99293.34
2019-02-19T14:46:57.092Z,99285.17
2019-02-19T14:49:51.506Z,99286.52
2019-02-19T14:52:41.211Z,99282.50
2019-02-19T14:55:23.706Z,99277.31
2019-02-19T14:58:13.501Z,99270.06
2019-02-19T15:01:02.673Z,99265.73
2019-02-19T15:03:54.231Z,99256.75
2019-02-19T15:06:38.732Z,99256.84
2019-02-19T15:09:46.648Z,99262.37
2019-02-19T15:12:48.400Z,99241.60
2019-02-19T15:15:43.045Z,99246.53
2019-02-19T15:18:37.087Z,99246.63
2019-02-19T15:21:22.722Z,99234.75
2019-02-19T15:24:05.969Z,99244.72
2019-02-19T15:26:51.018Z,99246.61
2019-02-19T15:29:50.070Z,99230.59
2019-02-19T15:32:38.486Z,99238.27
2019-02-19T15:35:26.765Z,99231.30
2019-02-19T15:38:16.845Z,99222.20
2019-02-19T15:41:10.181Z,99230.99
2019-02-19T15:43:54.279Z,99217.38
2019-02-19T15:46:56.543Z,99222.83
2019-02-19T15:49:59.054Z,99222.83
2019-02-19T15:53:07.223Z,99214.66
2019-02-19T15:55:57.366Z,99218.47
2019-02-19T15:58:45.628Z,99205.13
2019-02-19T16:01:35.905Z,99208.66
2019-02-19T16:04:17.511Z,99207.80
2019-02-19T16:07:07.922Z,99214.97
2019-02-19T16:09:44.313Z,99205.95
2019-02-19T16:12:51.371Z,99199.92
2019-02-19T16:15:43.638Z,99198.11
2019-02-19T16:18:34.591Z,99201.00
2019-02-19T16:21:30.233Z,99198.97
2019-02-19T16:24:11.871Z,99188.45
2019-02-19T16:27:19.878Z,99186.02
2019-02-19T16:30:00.049Z,99180.98
2019-02-19T16:32:49.096Z,99181.92
2019-02-19T16:35:43.481Z,99175.49
2019-02-19T16:38:32.265Z,99174.35
2019-02-19T16:41:15.447Z,99175.29
2019-02-19T16:44:12.278Z,99171.88
2019-02-19T16:46:57.993Z,99176.88
2019-02-19T16:49:46.494Z,99164.59
2019-02-19T16:52:48.391Z,99163.37
2019-02-19T16:55:41.446Z,99163.48
2019-02-19T16:58:26.848Z,99157.52
2019-02-19T17:01:14.685Z,99160.56
2019-02-19T17:04:23.236Z,99152.84
2019-02-19T17:07:16.270Z,99150.41
2019-02-19T17:10:06.356Z,99144.84
2019-02-19T17:13:07.197Z,99144.05
2019-02-19T17:15:59.785Z,99152.30
2019-02-19T17:18:48.477Z,99150.69
2019-02-19T17:21:32.072Z,99137.73
2019-02-19T17:24:21.947Z,99136.00
2019-02-19T17:27:05.174Z,99128.54
2019-02-19T17:29:41.891Z,99121.39
2019-02-19T17:32:40.705Z,99125.45
2019-02-19T17:35:28.794Z,99123.58
2019-02-19T17:38:14.727Z,99111.08
2019-02-19T17:40:51.603Z,99100.41
2019-02-19T17:43:33.202Z,99103.15
2019-02-19T17:46:33.114Z,99098.20
2019-02-19T17:49:29.584Z,99103.02
2019-02-19T17:52:22.108Z,99094.04
2019-02-19T17:55:10.119Z,99094.11
2019-02-19T17:57:58.627Z,99090.41
2019-02-19T18:00:51.537Z,99087.39
2019-02-19T18:03:41.551Z,99085.31
2019-02-19T18:06:30.042Z,99074.69
2019-02-19T18:09:16.559Z,99071.71
2019-02-19T18:12:20.956Z,99064.78
2019-02-19T18:15:13.994Z,99062.73
2019-02-19T18:18:03.085Z,99049.50
2019-02-19T18:20:34.033Z,99052.47
2019-02-19T18:23:04.627Z,99050.75
2019-02-19T18:25:34.898Z,99042.02
2019-02-19T18:28:05.577Z,99048.09
2019-02-19T18:30:36.016Z,99030.00
2019-02-19T18:33:06.831Z,99032.58
2019-02-19T18:35:37.402Z,99020.63
2019-02-19T18:38:07.944Z,99019.81
2019-02-19T18:40:38.612Z,99029.25
2019-02-19T18:43:08.915Z,99031.80
2019-02-19T18:45:39.223Z,99018.05
2019-02-19T18:48:09.502Z,99018.80
2019-02-19T18:50:39.916Z,99023.53
2019-02-19T18:53:10.188Z,99024.87
2019-02-19T18:55:41.145Z,99014.92
2019-02-19T18:58:14.786Z,99019.16
2019-02-19T19:00:45.189Z,99015.08
2019-02-19T19:03:15.573Z,99016.77
2019-02-19T19:05:45.811Z,99011.24
2019-02-19T19:08:19.212Z,99001.38
2019-02-19T19:10:52.326Z,99008.73
2019-02-19T19:13:29.837Z,98998.44
2019-02-19T19:15:57.507Z,98991.86
2019-02-19T19:18:28.190Z,98984.97
2019-02-19T19:21:07.456Z,98977.72
2019-02-19T19:23:31.448Z,98972.05
2019-02-19T19:26:01.756Z,98965.55
2019-02-19T19:28:32.346Z,98962.60
2019-02-19T19:31:04.115Z,98966.05
2019-02-19T19:34:03.140Z,98967.03
2019-02-19T19:36:37.422Z,98957.20
2019-02-19T19:39:19.929Z,98954.38
2019-02-19T19:47:56.701Z,98938.91
2019-02-19T19:50:27.091Z,98935.86
2019-02-19T19:52:58.065Z,98930.30
2019-02-19T19:55:28.682Z,98933.43
2019-02-19T19:58:02.954Z,98933.91
2019-02-19T20:00:33.312Z,98927.98
2019-02-19T20:03:03.664Z,98922.91
2019-02-19T20:05:34.032Z,98919.49
2019-02-19T20:08:04.709Z,98915.62
2019-02-19T20:10:37.249Z,98920.78
2019-02-19T20:13:07.663Z,98899.69
2019-02-19T20:15:39.535Z,98907.80
2019-02-19T20:18:10.907Z,98893.73
2019-02-19T20:20:41.074Z,98892.95
2019-02-19T20:23:12.307Z,98894.09
2019-02-19T20:25:42.883Z,98881.17
2019-02-19T20:28:13.036Z,98882.07
2019-02-19T20:30:43.569Z,98874.16
2019-02-19T20:33:14.100Z,98881.92
2019-02-19T20:35:44.521Z,98868.36
2019-02-19T20:38:15.688Z,98860.80
2019-02-19T20:40:46.398Z,98866.70
2019-02-19T20:43:16.635Z,98843.48
2019-02-19T20:45:46.897Z,98852.73
2019-02-19T20:48:17.745Z,98845.66
2019-02-19T20:50:48.284Z,98844.70
2019-02-19T20:53:18.901Z,98848.53
2019-02-19T20:55:49.057Z,98845.66
2019-02-19T20:58:20.102Z,98839.26
2019-02-19T21:00:50.731Z,98843.53
2019-02-19T21:03:20.954Z,98817.81
2019-02-19T21:05:51.903Z,98835.98
2019-02-19T21:08:22.298Z,98826.21
2019-02-19T21:10:52.820Z,98827.66
2019-02-19T21:13:23.278Z,98820.06
2019-02-19T21:15:53.878Z,98814.66
2019-02-19T21:18:24.254Z,98806.85
2019-02-19T21:20:55.063Z,98809.30
2019-02-19T21:23:25.818Z,98806.58
2019-02-19T21:25:56.032Z,98810.37
2019-02-19T21:28:26.539Z,98802.12
2019-02-19T21:30:57.211Z,98790.47
2019-02-19T21:33:27.927Z,98795.23
2019-02-19T21:35:58.892Z,98793.34
2019-02-19T21:38:29.398Z,98794.97
2019-02-19T21:41:00.760Z,98791.11
2019-02-19T21:43:31.333Z,98778.34
2019-02-19T21:46:02.489Z,98780.16
2019-02-19T21:48:32.744Z,98764.18
2019-02-19T21:51:02.907Z,98772.11
2019-02-19T21:53:33.399Z,98763.23
2019-02-19T21:56:03.855Z,98764.95
2019-02-19T21:58:34.130Z,98758.63
2019-02-19T22:01:04.864Z,98756.13
2019-02-19T22:03:35.078Z,98755.78
2019-02-19T22:06:05.357Z,98745.14
2019-02-19T22:08:35.521Z,98740.45
2019-02-19T22:11:06.673Z,98735.59
2019-02-19T22:13:37.676Z,98735.25
2019-02-19T22:16:08.547Z,98729.17
2019-02-19T22:18:39.372Z,98717.08
2019-02-19T22:21:29.440Z,98709.32
2019-02-19T22:23:59.982Z,98711.00
2019-02-19T22:26:30.442Z,98700.88
2019-02-19T22:29:01.075Z,98692.83
2019-02-19T22:31:31.486Z,98695.80
2019-02-19T22:34:01.790Z,98691.93
2019-02-19T22:36:31.812Z,98688.95
2019-02-19T22:39:02.313Z,98692.53
2019-02-19T22:41:33.086Z,98679.75
2019-02-19T22:44:03.408Z,98686.25
2019-02-19T22:46:34.719Z,98675.97
2019-02-19T22:49:05.541Z,98666.67
2019-02-19T22:51:35.851Z,98663.87
2019-02-19T22:54:11.218Z,98666.10
2019-02-19T22:56:44.343Z,98657.94
2019-02-19T22:59:14.868Z,98659.05
2019-02-19T23:02:17.505Z,98652.42
2019-02-19T23:04:47.901Z,98652.98
2019-02-19T23:07:18.376Z,98645.67
2019-02-19T23:09:48.832Z,98642.30
2019-02-19T23:12:19.377Z,98638.46
2019-02-19T23:14:49.934Z,98632.30
2019-02-19T23:17:20.844Z,98641.66
2019-02-19T23:19:51.088Z,98642.58
2019-02-19T23:22:21.968Z,98633.25
2019-02-19T23:24:52.771Z,98621.37
2019-02-19T23:27:23.312Z,98626.45
2019-02-19T23:29:54.226Z,98611.75
2019-02-19T23:32:24.969Z,98613.09
2019-02-19T23:35:13.428Z,98596.34
2019-02-19T23:37:44.090Z,98602.03
2019-02-19T23:40:14.243Z,98591.89
2019-02-19T23:42:45.469Z,98589.69
2019-02-19T23:45:15.896Z,98586.91
2019-02-19T23:47:46.420Z,98578.92
2019-02-19T23:50:16.729Z,98576.32
2019-02-19T23:52:47.211Z,98578.08
2019-02-19T23:55:17.889Z,98569.02
2019-02-19T23:57:48.391Z,98556.41
